createdAt,value
2019-04-25T00:00:58.125Z,11.6
2019-04-25T00:01:59.520Z,11.6
2019-04-25T00:03:01.224Z,11.6
2019-04-25T00:04:02.290Z,11.6
2019-04-25T00:05:03.805Z,11.6
2019-04-25T00:06:05.386Z,11.6
2019-04-25T00:07:06.772Z,11.7
2019-04-25T00:08:08.173Z,11.6
2019-04-25T00:09:09.567Z,11.6
2019-04-25T00:10:11.715Z,11.7
2019-04-25T00:11:12.315Z,11.7
2019-04-25T00:12:13.784Z,11.6
2019-04-25T00:13:15.253Z,11.7
2019-04-25T00:14:16.650Z,11.6
2019-04-25T00:15:18.063Z,11.6
2019-04-25T00:16:19.446Z,11.6
2019-04-25T00:17:21.440Z,11.7
2019-04-25T00:18:23.369Z,11.6
2019-04-25T00:19:23.806Z,11.6
2019-04-25T00:20:25.094Z,11.7
2019-04-25T00:21:26.486Z,11.6
2019-04-25T00:22:27.879Z,11.6
2019-04-25T00:23:29.271Z,11.6
2019-04-25T00:24:32.060Z,11.6
2019-04-25T00:25:32.173Z,11.5
2019-04-25T00:26:33.565Z,11.6
2019-04-25T00:27:35.050Z,11.5
2019-04-25T00:28:36.452Z,11.5
2019-04-25T00:29:37.842Z,11.5
2019-04-25T00:30:40.305Z,11.5
2019-04-25T00:31:41.101Z,11.5
2019-04-25T00:32:43.947Z,11.5
2019-04-25T00:33:44.919Z,11.5
2019-04-25T00:34:45.659Z,11.4
2019-04-25T00:35:46.479Z,11.5
2019-04-25T00:36:48.663Z,11.5
2019-04-25T00:37:49.860Z,11.4
2019-04-25T00:38:51.993Z,11.5
2019-04-25T00:39:52.101Z,11.4
2019-04-25T00:40:53.660Z,11.4
2019-04-25T00:41:54.944Z,11.4
2019-04-25T00:42:56.448Z,11.4
2019-04-25T00:43:57.838Z,11.3
2019-04-25T00:44:59.234Z,11.3
2019-04-25T00:46:01.515Z,11.3
2019-04-25T00:47:02.465Z,11.3
2019-04-25T00:48:04.331Z,11.3
2019-04-25T00:49:04.715Z,11.3
2019-04-25T00:50:06.106Z,11.3
2019-04-25T00:51:07.495Z,11.3
2019-04-25T00:52:08.885Z,11.3
2019-04-25T00:53:11.299Z,11.3
2019-04-25T00:54:11.887Z,11.3
2019-04-25T00:55:13.242Z,11.3
2019-04-25T00:56:14.336Z,11.3
2019-04-25T00:57:15.963Z,11.3
2019-04-25T00:58:17.357Z,11.3
2019-04-25T00:59:18.774Z,11.3
2019-04-25T01:00:21.567Z,11.2
2019-04-25T01:01:21.831Z,11.2
2019-04-25T01:02:22.987Z,11.3
2019-04-25T01:03:24.781Z,11.3
2019-04-25T01:04:26.177Z,11.3
2019-04-25T01:05:27.635Z,11.3
2019-04-25T01:06:29.041Z,11.3
2019-04-25T01:07:32.441Z,11.3
2019-04-25T01:08:32.051Z,11.2
2019-04-25T01:09:33.410Z,11.4
2019-04-25T01:10:34.809Z,11.3
2019-04-25T01:11:36.192Z,11.2
2019-04-25T01:12:37.603Z,11.3
2019-04-25T01:13:39.036Z,11.2
2019-04-25T01:14:41.882Z,11.2
2019-04-25T01:15:42.514Z,11.3
2019-04-25T01:16:43.269Z,11.2
2019-04-25T01:17:45.450Z,11.2
2019-04-25T01:18:46.798Z,11.2
2019-04-25T01:19:47.377Z,11.2
2019-04-25T01:20:49.040Z,11.2
2019-04-25T01:21:50.142Z,11.1
2019-04-25T01:22:51.648Z,11.2
2019-04-25T01:23:53.689Z,11.3
2019-04-25T01:24:55.176Z,11.1
2019-04-25T01:25:55.835Z,11.3
2019-04-25T01:26:56.992Z,11.1
2019-04-25T01:27:58.391Z,11.3
2019-04-25T01:28:59.794Z,11.2
2019-04-25T01:30:01.193Z,11.2
2019-04-25T01:31:03.765Z,11.2
2019-04-25T01:32:04.070Z,11.1
2019-04-25T01:33:05.460Z,11.2
2019-04-25T01:34:06.855Z,11.2
2019-04-25T01:35:08.265Z,11.1
2019-04-25T01:36:09.654Z,11.2
2019-04-25T01:37:11.048Z,11.2
2019-04-25T01:38:13.726Z,11.1
2019-04-25T01:39:14.351Z,11.1
2019-04-25T01:40:15.159Z,11.3
2019-04-25T01:41:16.546Z,11.1
2019-04-25T01:42:17.939Z,11.2
2019-04-25T01:43:19.338Z,11.1
2019-04-25T01:44:20.734Z,11.3
2019-04-25T01:45:23.887Z,11.3
2019-04-25T01:46:24.297Z,11.2
2019-04-25T01:47:24.856Z,11.1
2019-04-25T01:48:26.264Z,11.1
2019-04-25T01:49:27.660Z,11.1
2019-04-25T01:50:29.057Z,11.3
2019-04-25T01:51:30.468Z,11.0
2019-04-25T01:52:33.331Z,11.2
2019-04-25T01:53:33.936Z,11.1
2019-04-25T01:54:34.570Z,11.2
2019-04-25T01:55:35.962Z,11.1
2019-04-25T01:56:37.350Z,11.1
2019-04-25T01:57:38.743Z,11.1
2019-04-25T01:58:40.267Z,11.2
2019-04-25T01:59:41.653Z,11.0
2019-04-25T02:00:43.402Z,11.1
2019-04-25T02:01:44.432Z,11.1
2019-04-25T02:02:45.978Z,11.0
2019-04-25T02:03:47.409Z,11.2
2019-04-25T02:04:48.810Z,11.0
2019-04-25T02:05:51.286Z,11.0
2019-04-25T02:06:53.669Z,11.1
2019-04-25T02:07:53.440Z,11.0
2019-04-25T02:08:55.268Z,11.1
2019-04-25T02:09:55.986Z,11.0
2019-04-25T02:10:57.834Z,11.1
2019-04-25T02:11:58.876Z,11.1
2019-04-25T02:12:59.895Z,11.0
2019-04-25T02:14:01.086Z,11.0
2019-04-25T02:15:04.308Z,11.0
2019-04-25T02:16:05.288Z,11.0
2019-04-25T02:17:05.231Z,11.0
2019-04-25T02:18:06.640Z,11.1
2019-04-25T02:19:08.027Z,11.0
2019-04-25T02:20:09.423Z,11.0
2019-04-25T02:21:10.836Z,11.0
2019-04-25T02:22:12.232Z,11.0
2019-04-25T02:23:14.149Z,11.0
2019-04-25T02:24:15.004Z,11.1
2019-04-25T02:25:16.397Z,10.9
2019-04-25T02:26:18.664Z,10.9
2019-04-25T02:27:19.146Z,10.9
2019-04-25T02:28:20.535Z,10.9
2019-04-25T02:29:23.426Z,11.0
2019-04-25T02:30:25.271Z,11.0
2019-04-25T02:31:24.800Z,10.9
2019-04-25T02:32:26.024Z,10.9
2019-04-25T02:33:27.412Z,10.9
2019-04-25T02:34:28.799Z,11.0
2019-04-25T02:35:30.190Z,10.9
2019-04-25T02:36:31.594Z,11.0
2019-04-25T02:37:34.963Z,10.9
2019-04-25T02:38:34.412Z,10.9
2019-04-25T02:39:37.381Z,10.9
2019-04-25T02:40:37.096Z,10.9
2019-04-25T02:41:38.499Z,10.9
2019-04-25T02:42:39.886Z,10.9
2019-04-25T02:43:41.289Z,10.9
2019-04-25T02:44:44.429Z,10.9
2019-04-25T02:45:44.251Z,10.9
2019-04-25T02:46:45.405Z,10.9
2019-04-25T02:47:46.794Z,11.0
2019-04-25T02:48:48.185Z,10.9
2019-04-25T02:49:49.585Z,11.0
2019-04-25T02:50:50.986Z,10.9
2019-04-25T02:51:55.031Z,11.0
2019-04-25T02:52:55.629Z,10.9
2019-04-25T02:53:56.211Z,10.9
2019-04-25T02:54:58.382Z,10.9
2019-04-25T02:55:57.945Z,10.9
2019-04-25T02:56:59.957Z,10.9
2019-04-25T02:58:00.717Z,10.9
2019-04-25T02:59:04.832Z,10.9
2019-04-25T03:00:05.956Z,10.9
2019-04-25T03:01:16.221Z,10.9
2019-04-25T03:02:08.561Z,10.9
2019-04-25T03:03:08.572Z,10.9
2019-04-25T03:04:11.271Z,10.9
2019-04-25T03:05:10.494Z,10.9
2019-04-25T03:06:11.884Z,10.9
2019-04-25T03:07:16.724Z,11.0
2019-04-25T03:08:14.614Z,10.9
2019-04-25T03:09:16.066Z,10.9
2019-04-25T03:10:17.452Z,10.9
2019-04-25T03:11:18.846Z,10.9
2019-04-25T03:12:32.352Z,10.9
2019-04-25T03:13:24.425Z,10.9
2019-04-25T03:14:26.406Z,10.9
2019-04-25T03:15:24.499Z,10.9
2019-04-25T03:16:25.711Z,10.9
2019-04-25T03:17:27.116Z,10.9
2019-04-25T03:18:28.528Z,10.9
2019-04-25T03:19:29.924Z,11.0
2019-04-25T03:20:31.353Z,10.9
2019-04-25T03:21:34.957Z,10.9
2019-04-25T03:22:34.474Z,10.9
2019-04-25T03:23:35.532Z,10.9
2019-04-25T03:24:36.824Z,10.9
2019-04-25T03:25:38.222Z,11.0
2019-04-25T03:26:40.691Z,11.0
2019-04-25T03:27:40.970Z,11.0
2019-04-25T03:28:43.675Z,10.9
2019-04-25T03:29:44.213Z,11.0
2019-04-25T03:30:45.180Z,10.9
2019-04-25T03:31:46.443Z,10.9
2019-04-25T03:32:51.278Z,11.0
2019-04-25T03:33:49.241Z,10.9
2019-04-25T03:34:50.649Z,10.9
2019-04-25T03:35:52.981Z,10.9
2019-04-25T03:36:53.710Z,10.9
2019-04-25T03:37:54.804Z,10.9
2019-04-25T03:38:56.199Z,10.9
2019-04-25T03:39:57.592Z,10.9
2019-04-25T03:40:59.155Z,10.9
2019-04-25T03:42:01.339Z,10.8
2019-04-25T03:43:03.254Z,10.8
2019-04-25T03:44:04.544Z,10.9
2019-04-25T03:45:05.863Z,10.9
2019-04-25T03:46:06.921Z,10.9
2019-04-25T03:47:07.787Z,10.9
2019-04-25T03:48:09.543Z,10.9
2019-04-25T03:49:10.201Z,10.9
2019-04-25T03:50:11.926Z,10.9
2019-04-25T03:51:15.377Z,10.9
2019-04-25T03:52:14.396Z,10.9
2019-04-25T03:53:15.786Z,10.9
2019-04-25T03:54:17.186Z,10.9
2019-04-25T03:55:18.616Z,10.9
2019-04-25T03:56:20.014Z,11.0
2019-04-25T03:57:23.154Z,10.9
2019-04-25T03:58:23.934Z,10.9
2019-04-25T03:59:24.176Z,10.9
2019-04-25T04:00:25.600Z,10.9
2019-04-25T04:01:27.029Z,10.8
2019-04-25T04:02:28.428Z,10.9
2019-04-25T04:03:29.815Z,10.8
2019-04-25T04:04:31.246Z,10.8
2019-04-25T04:05:32.628Z,10.8
2019-04-25T04:06:34.095Z,10.8
2019-04-25T04:07:35.386Z,10.8
2019-04-25T04:08:36.806Z,10.8
2019-04-25T04:09:38.221Z,10.7
2019-04-25T04:10:39.617Z,10.8
2019-04-25T04:11:41.028Z,10.7
2019-04-25T04:12:44.213Z,10.8
2019-04-25T04:13:44.041Z,10.7
2019-04-25T04:14:45.138Z,10.8
2019-04-25T04:15:46.547Z,10.8
2019-04-25T04:16:47.940Z,10.7
2019-04-25T04:17:49.333Z,10.8
2019-04-25T04:18:50.721Z,10.8
2019-04-25T04:19:53.606Z,10.9
2019-04-25T04:20:53.560Z,10.8
2019-04-25T04:21:54.823Z,10.7
2019-04-25T04:22:56.219Z,10.9
2019-04-25T04:23:57.622Z,10.9
2019-04-25T04:24:59.030Z,10.9
2019-04-25T04:26:00.423Z,10.9
2019-04-25T04:27:03.686Z,10.9
2019-04-25T04:28:03.806Z,11.0
2019-04-25T04:29:04.692Z,11.0
2019-04-25T04:30:06.474Z,11.1
2019-04-25T04:31:08.338Z,11.1
2019-04-25T04:32:08.794Z,11.1
2019-04-25T04:33:22.176Z,11.1
2019-04-25T04:34:11.653Z,11.1
2019-04-25T04:35:14.434Z,11.2
2019-04-25T04:36:15.014Z,11.3
2019-04-25T04:37:16.169Z,11.3
2019-04-25T04:38:18.108Z,11.3
2019-04-25T04:39:18.814Z,11.2
2019-04-25T04:40:19.918Z,11.3
2019-04-25T04:41:21.311Z,11.5
2019-04-25T04:42:23.748Z,11.5
2019-04-25T04:43:25.512Z,11.6
2019-04-25T04:44:25.486Z,11.6
2019-04-25T04:45:26.877Z,11.6
2019-04-25T04:46:28.280Z,11.6
2019-04-25T04:47:29.695Z,11.6
2019-04-25T04:48:31.115Z,11.8
2019-04-25T04:49:33.943Z,11.7
2019-04-25T04:50:33.903Z,11.8
2019-04-25T04:51:35.294Z,11.8
2019-04-25T04:52:36.722Z,11.9
2019-04-25T04:53:38.125Z,11.9
2019-04-25T04:54:39.550Z,11.9
2019-04-25T04:55:41.001Z,11.9
2019-04-25T04:56:43.702Z,12.0
2019-04-25T04:57:44.850Z,11.9
2019-04-25T04:58:45.234Z,12.1
2019-04-25T04:59:46.633Z,12.0
2019-04-25T05:00:48.039Z,12.2
2019-04-25T05:01:49.434Z,12.1
2019-04-25T05:02:50.864Z,12.1
2019-04-25T05:03:53.942Z,12.1
2019-04-25T05:04:53.702Z,12.1
2019-04-25T05:05:55.144Z,12.1
2019-04-25T05:06:56.357Z,12.2
2019-04-25T05:07:57.759Z,12.2
2019-04-25T05:08:59.169Z,12.2
2019-04-25T05:10:00.573Z,12.3
2019-04-25T05:11:01.975Z,12.2
2019-04-25T05:12:04.102Z,12.3
2019-04-25T05:13:04.744Z,12.3
2019-04-25T05:14:06.144Z,12.4
2019-04-25T05:15:07.545Z,12.3
2019-04-25T05:16:08.947Z,12.5
2019-04-25T05:17:10.355Z,12.4
2019-04-25T05:18:12.345Z,12.5
2019-04-25T05:19:14.626Z,12.4
2019-04-25T05:20:16.007Z,12.4
2019-04-25T05:21:17.034Z,12.5
2019-04-25T05:22:18.203Z,12.4
2019-04-25T05:23:18.876Z,12.5
2019-04-25T05:24:20.845Z,12.6
2019-04-25T05:25:23.497Z,12.6
2019-04-25T05:26:24.657Z,12.6
2019-04-25T05:27:35.727Z,12.6
2019-04-25T05:28:25.770Z,12.6
2019-04-25T05:29:27.166Z,12.5
2019-04-25T05:30:28.577Z,12.8
2019-04-25T05:31:29.978Z,12.7
2019-04-25T05:32:31.397Z,12.7
2019-04-25T05:33:33.795Z,12.7
2019-04-25T05:34:34.420Z,12.7
2019-04-25T05:35:35.572Z,12.7
2019-04-25T05:36:36.974Z,12.7
2019-04-25T05:37:38.368Z,12.7
2019-04-25T05:38:39.764Z,12.7
2019-04-25T05:39:41.160Z,12.7
2019-04-25T05:40:43.762Z,12.8
2019-04-25T05:41:44.207Z,12.7
2019-04-25T05:42:45.284Z,12.8
2019-04-25T05:43:46.696Z,12.8
2019-04-25T05:44:48.099Z,12.8
2019-04-25T05:45:49.504Z,12.8
2019-04-25T05:46:50.900Z,12.8
2019-04-25T05:47:53.999Z,12.8
2019-04-25T05:48:53.750Z,12.8
2019-04-25T05:49:55.043Z,13.0
2019-04-25T05:50:56.451Z,12.9
2019-04-25T05:51:57.844Z,12.9
2019-04-25T05:52:59.268Z,12.9
2019-04-25T05:54:04.051Z,12.9
2019-04-25T05:55:04.490Z,12.9
2019-04-25T05:56:07.040Z,12.9
2019-04-25T05:57:09.454Z,12.9
2019-04-25T05:58:13.851Z,13.0
2019-04-25T05:59:15.136Z,12.9
2019-04-25T06:00:19.056Z,13.0
2019-04-25T06:01:21.191Z,13.0
2019-04-25T06:02:25.163Z,13.1
2019-04-25T06:03:27.609Z,13.0
2019-04-25T06:04:30.018Z,13.1
2019-04-25T06:05:33.224Z,13.2
2019-04-25T06:06:36.946Z,13.2
2019-04-25T06:07:39.404Z,13.2
2019-04-25T06:08:42.028Z,13.2
2019-04-25T06:09:44.697Z,13.2
2019-04-25T06:10:47.444Z,13.2
2019-04-25T06:11:50.442Z,13.2
2019-04-25T06:12:53.677Z,13.2
2019-04-25T06:13:55.996Z,13.3
2019-04-25T06:14:58.927Z,13.3
2019-04-25T06:16:03.500Z,13.3
2019-04-25T06:17:04.375Z,13.3
2019-04-25T06:18:07.255Z,13.3
2019-04-25T06:19:14.104Z,13.3
2019-04-25T06:20:13.384Z,13.4
2019-04-25T06:21:15.802Z,13.5
2019-04-25T06:22:18.443Z,13.4
2019-04-25T06:23:21.487Z,13.4
2019-04-25T06:24:25.772Z,13.5
2019-04-25T06:25:30.502Z,13.6
2019-04-25T06:26:35.410Z,13.6
2019-04-25T06:27:33.658Z,13.6
2019-04-25T06:28:35.652Z,13.7
2019-04-25T06:29:38.497Z,13.7
2019-04-25T06:30:42.188Z,13.8
2019-04-25T06:31:45.681Z,13.8
2019-04-25T06:32:49.328Z,13.8
2019-04-25T06:33:53.855Z,13.8
2019-04-25T06:34:56.055Z,13.9
2019-04-25T06:35:58.737Z,13.9
2019-04-25T06:37:02.369Z,13.9
2019-04-25T06:38:05.186Z,14.0
2019-04-25T06:39:07.702Z,14.0
2019-04-25T06:40:11.150Z,14.0
2019-04-25T06:41:14.723Z,14.0
2019-04-25T06:42:21.060Z,14.0
2019-04-25T06:43:24.310Z,14.1
2019-04-25T06:44:26.909Z,14.2
2019-04-25T06:45:30.146Z,14.1
2019-04-25T06:46:33.840Z,14.1
2019-04-25T06:47:35.942Z,14.3
2019-04-25T06:48:40.122Z,14.3
2019-04-25T06:49:45.774Z,14.3
2019-04-25T06:50:51.086Z,14.4
2019-04-25T06:51:54.444Z,14.4
2019-04-25T06:52:56.918Z,14.4
2019-04-25T06:53:59.784Z,14.4
2019-04-25T06:55:03.386Z,14.5
2019-04-25T06:56:04.589Z,14.4
2019-04-25T06:57:07.412Z,14.4
2019-04-25T06:58:12.307Z,14.4
2019-04-25T06:59:13.493Z,14.4
2019-04-25T07:00:15.608Z,14.6
2019-04-25T07:01:18.160Z,14.4
2019-04-25T07:02:20.971Z,14.4
2019-04-25T07:03:24.927Z,14.4
2019-04-25T07:04:27.721Z,14.5
2019-04-25T07:05:33.908Z,14.5
2019-04-25T07:06:33.835Z,14.5
2019-04-25T07:07:35.214Z,14.5
2019-04-25T07:08:38.490Z,14.5
2019-04-25T07:09:41.185Z,14.5
2019-04-25T07:10:44.738Z,14.5
2019-04-25T07:11:48.198Z,14.6
2019-04-25T07:12:50.179Z,14.6
2019-04-25T07:13:53.597Z,14.6
2019-04-25T07:14:56.356Z,14.6
2019-04-25T07:15:59.213Z,14.6
2019-04-25T07:17:02.114Z,14.5
2019-04-25T07:18:05.355Z,14.6
2019-04-25T07:19:08.455Z,14.7
2019-04-25T07:20:11.594Z,14.7
2019-04-25T07:21:15.469Z,14.7
2019-04-25T07:22:18.911Z,14.7
2019-04-25T07:23:23.511Z,14.7
2019-04-25T07:24:25.961Z,14.7
2019-04-25T07:25:28.556Z,14.7
2019-04-25T07:26:34.248Z,14.7
2019-04-25T07:27:34.696Z,14.7
2019-04-25T07:28:37.707Z,14.7
2019-04-25T07:29:40.641Z,14.7
2019-04-25T07:30:50.007Z,14.7
2019-04-25T07:31:46.229Z,14.8
2019-04-25T07:32:49.286Z,14.8
2019-04-25T07:33:53.254Z,14.8
2019-04-25T07:34:55.164Z,14.9
2019-04-25T07:35:58.259Z,15.0
2019-04-25T07:37:03.434Z,15.0
2019-04-25T07:38:05.591Z,15.1
2019-04-25T07:39:10.369Z,15.1
2019-04-25T07:40:13.929Z,15.2
2019-04-25T07:41:16.235Z,15.4
2019-04-25T07:42:19.582Z,15.4
2019-04-25T07:43:23.472Z,15.5
2019-04-25T07:44:37.966Z,15.6
2019-04-25T07:45:31.608Z,15.7
2019-04-25T07:46:37.239Z,15.8
2019-04-25T07:47:38.775Z,15.9
2019-04-25T07:48:43.651Z,16.0
2019-04-25T07:49:44.676Z,16.0
2019-04-25T07:50:47.782Z,16.0
2019-04-25T07:51:51.390Z,16.1
2019-04-25T07:52:54.044Z,16.1
2019-04-25T07:53:56.930Z,16.1
2019-04-25T07:55:00.093Z,16.1
2019-04-25T07:56:04.157Z,16.0
2019-04-25T07:57:05.700Z,16.1
2019-04-25T07:58:08.652Z,16.0
2019-04-25T07:59:11.800Z,16.1
2019-04-25T08:00:14.488Z,15.9
2019-04-25T08:01:17.336Z,15.8
2019-04-25T08:02:20.176Z,15.8
2019-04-25T08:03:23.741Z,15.9
2019-04-25T08:04:27.539Z,15.8
2019-04-25T08:05:29.554Z,15.8
2019-04-25T08:06:33.129Z,15.8
2019-04-25T08:07:35.022Z,15.8
2019-04-25T08:08:38.128Z,15.8
2019-04-25T08:09:40.158Z,15.7
2019-04-25T08:10:43.397Z,15.7
2019-04-25T08:11:46.187Z,15.6
2019-04-25T08:12:49.456Z,15.6
2019-04-25T08:13:53.366Z,15.7
2019-04-25T08:14:55.092Z,15.6
2019-04-25T08:15:57.386Z,15.6
2019-04-25T08:17:00.004Z,15.6
2019-04-25T08:18:03.931Z,15.5
2019-04-25T08:19:05.331Z,15.6
2019-04-25T08:20:08.319Z,15.6
2019-04-25T08:21:10.762Z,15.7
2019-04-25T08:22:13.812Z,15.7
2019-04-25T08:23:16.087Z,15.7
2019-04-25T08:24:19.174Z,15.8
2019-04-25T08:25:23.475Z,16.0
2019-04-25T08:26:27.696Z,16.0
2019-04-25T08:27:34.142Z,16.1
2019-04-25T08:28:49.562Z,16.2
2019-04-25T08:29:45.537Z,16.2
2019-04-25T08:30:49.781Z,16.3
2019-04-25T08:31:53.723Z,16.3
2019-04-25T08:32:57.976Z,16.4
2019-04-25T08:34:03.521Z,16.4
2019-04-25T08:35:09.211Z,16.5
2019-04-25T08:36:14.092Z,16.5
2019-04-25T08:37:21.136Z,16.7
2019-04-25T08:38:25.854Z,16.7
2019-04-25T08:39:34.073Z,16.6
2019-04-25T08:40:38.864Z,16.8
2019-04-25T08:41:45.517Z,16.7
2019-04-25T08:42:49.739Z,16.8
2019-04-25T08:43:54.398Z,16.8
2019-04-25T08:45:03.578Z,16.8
2019-04-25T08:46:05.524Z,16.8
2019-04-25T08:47:09.122Z,16.8
2019-04-25T08:48:13.443Z,16.8
2019-04-25T08:49:15.416Z,16.9
2019-04-25T08:50:39.646Z,17.0
2019-04-25T08:51:40.117Z,17.1
2019-04-25T08:52:46.058Z,17.1
2019-04-25T08:53:48.361Z,17.2
2019-04-25T08:54:50.395Z,17.2
2019-04-25T08:55:54.021Z,17.3
2019-04-25T08:56:55.311Z,17.3
2019-04-25T08:57:57.518Z,17.3
2019-04-25T08:59:05.543Z,17.3
2019-04-25T09:00:01.634Z,17.3
2019-04-25T09:01:04.480Z,17.4
2019-04-25T09:02:07.661Z,17.5
2019-04-25T09:03:10.247Z,17.5
2019-04-25T09:04:13.223Z,17.5
2019-04-25T09:05:16.680Z,17.6
2019-04-25T09:06:19.022Z,17.6
2019-04-25T09:07:23.554Z,17.6
2019-04-25T09:08:24.202Z,17.7
2019-04-25T09:09:26.347Z,17.5
2019-04-25T09:10:29.320Z,17.5
2019-04-25T09:11:32.377Z,17.6
2019-04-25T09:12:35.553Z,17.5
2019-04-25T09:13:38.298Z,17.6
2019-04-25T09:14:41.046Z,17.5
2019-04-25T09:15:45.474Z,17.5
2019-04-25T09:16:46.469Z,17.6
2019-04-25T09:17:49.358Z,17.5
2019-04-25T09:18:53.989Z,17.6
2019-04-25T09:19:55.314Z,17.7
2019-04-25T09:20:57.409Z,17.7
2019-04-25T09:21:59.435Z,17.6
2019-04-25T09:23:03.315Z,17.7
2019-04-25T09:24:04.686Z,17.7
2019-04-25T09:25:07.008Z,17.7
2019-04-25T09:26:11.328Z,17.7
2019-04-25T09:27:13.643Z,17.8
2019-04-25T09:28:16.328Z,17.8
2019-04-25T09:29:19.960Z,17.9
2019-04-25T09:30:24.131Z,17.9
2019-04-25T09:31:29.044Z,17.9
2019-04-25T09:32:33.817Z,18.0
2019-04-25T09:33:37.516Z,17.9
2019-04-25T09:34:39.629Z,17.9
2019-04-25T09:35:42.531Z,18.0
2019-04-25T09:36:45.447Z,18.0
2019-04-25T09:37:48.663Z,18.0
2019-04-25T09:38:51.831Z,18.0
2019-04-25T09:39:55.815Z,18.0
2019-04-25T09:40:56.878Z,17.9
2019-04-25T09:41:59.443Z,18.0
2019-04-25T09:43:03.612Z,18.0
2019-04-25T09:44:04.706Z,18.0
2019-04-25T09:45:07.131Z,18.0
2019-04-25T09:46:09.294Z,18.1
2019-04-25T09:47:13.620Z,18.1
2019-04-25T09:48:15.017Z,18.1
2019-04-25T09:49:17.529Z,18.2
2019-04-25T09:50:19.993Z,18.1
2019-04-25T09:51:23.540Z,18.2
2019-04-25T09:52:25.724Z,18.1
2019-04-25T09:53:27.961Z,18.1
2019-04-25T09:54:30.075Z,18.1
2019-04-25T09:55:34.012Z,18.2
2019-04-25T09:56:36.503Z,18.2
2019-04-25T09:57:38.949Z,18.2
2019-04-25T09:58:40.315Z,18.4
2019-04-25T09:59:43.974Z,18.4
2019-04-25T10:00:45.954Z,18.4
2019-04-25T10:01:48.291Z,18.4
2019-04-25T10:02:58.585Z,18.4
2019-04-25T10:04:08.935Z,18.5
2019-04-25T10:05:14.541Z,18.6
2019-04-25T10:06:19.469Z,18.6
2019-04-25T10:07:22.605Z,18.7
2019-04-25T10:08:27.662Z,18.6
2019-04-25T10:09:34.547Z,18.7
2019-04-25T10:10:36.449Z,18.7
2019-04-25T10:11:48.366Z,18.7
2019-04-25T10:13:04.203Z,18.8
2019-04-25T10:14:17.939Z,18.8
2019-04-25T10:15:21.821Z,18.9
2019-04-25T10:16:42.768Z,18.9
2019-04-25T10:17:46.690Z,18.9
2019-04-25T10:18:55.206Z,18.9
2019-04-25T10:20:09.937Z,19.0
2019-04-25T10:21:24.004Z,18.9
2019-04-25T10:22:33.926Z,18.9
2019-04-25T10:23:38.245Z,18.9
2019-04-25T10:24:42.525Z,19.0
2019-04-25T10:25:46.477Z,19.0
2019-04-25T10:26:48.461Z,19.0
2019-04-25T10:27:53.750Z,19.0
2019-04-25T10:28:56.226Z,19.0
2019-04-25T10:30:00.341Z,19.0
2019-04-25T10:31:04.292Z,19.1
2019-04-25T10:32:08.193Z,19.1
2019-04-25T10:33:12.097Z,19.0
2019-04-25T10:34:17.689Z,19.1
2019-04-25T10:35:30.220Z,19.1
2019-04-25T10:36:38.731Z,19.1
2019-04-25T10:38:14.369Z,19.1
2019-04-25T10:40:04.535Z,19.3
2019-04-25T10:41:39.932Z,19.2
2019-04-25T10:42:46.581Z,19.3
2019-04-25T10:43:46.853Z,19.3
2019-04-25T10:44:54.158Z,19.3
2019-04-25T10:45:55.248Z,19.5
2019-04-25T10:46:57.192Z,19.4
2019-04-25T10:47:58.810Z,19.3
2019-04-25T10:49:01.151Z,19.4
2019-04-25T10:50:03.631Z,19.5
2019-04-25T10:51:04.599Z,19.7
2019-04-25T10:52:06.130Z,19.6
2019-04-25T10:53:07.636Z,19.8
2019-04-25T10:54:09.174Z,19.9
2019-04-25T10:55:11.886Z,20.0
2019-04-25T10:56:14.114Z,20.1
2019-04-25T10:57:15.245Z,20.1
2019-04-25T10:58:16.777Z,20.2
2019-04-25T10:59:19.049Z,20.2
2019-04-25T11:00:21.130Z,20.3
2019-04-25T11:01:24.078Z,20.4
2019-04-25T11:02:24.072Z,20.5
2019-04-25T11:03:27.685Z,20.5
2019-04-25T11:04:29.452Z,20.7
2019-04-25T11:05:30.956Z,20.8
2019-04-25T11:06:33.677Z,21.0
2019-04-25T11:07:36.543Z,21.1
2019-04-25T11:08:38.012Z,21.3
2019-04-25T11:09:39.534Z,21.4
2019-04-25T11:10:42.260Z,21.6
2019-04-25T11:11:44.604Z,21.9
2019-04-25T11:12:47.125Z,22.0
2019-04-25T11:13:49.211Z,22.2
2019-04-25T11:14:50.651Z,22.4
2019-04-25T11:15:52.207Z,22.5
2019-04-25T11:16:55.054Z,22.8
2019-04-25T11:17:55.133Z,22.9
2019-04-25T11:18:56.541Z,23.0
2019-04-25T11:19:58.018Z,23.0
2019-04-25T11:20:59.493Z,23.2
2019-04-25T11:22:00.954Z,23.3
2019-04-25T11:23:03.645Z,23.5
2019-04-25T11:24:04.094Z,23.7
2019-04-25T11:25:05.261Z,23.8
2019-04-25T11:26:06.685Z,23.8
2019-04-25T11:27:08.141Z,24.1
2019-04-25T11:28:09.640Z,24.2
2019-04-25T11:29:11.153Z,24.5
2019-04-25T11:30:13.835Z,24.7
2019-04-25T11:31:14.313Z,24.9
2019-04-25T11:32:15.561Z,25.1
2019-04-25T11:33:17.016Z,25.3
2019-04-25T11:34:18.419Z,25.6
2019-04-25T11:35:19.838Z,25.6
2019-04-25T11:36:21.270Z,25.6
2019-04-25T11:37:23.920Z,25.7
2019-04-25T11:38:24.392Z,25.8
2019-04-25T11:39:26.475Z,26.0
2019-04-25T11:40:27.904Z,26.1
2019-04-25T11:41:29.333Z,26.4
2019-04-25T11:42:30.798Z,26.6
2019-04-25T11:43:33.771Z,26.8
2019-04-25T11:44:34.966Z,26.8
2019-04-25T11:45:36.020Z,26.8
2019-04-25T11:46:39.265Z,27.3
2019-04-25T11:47:38.896Z,27.5
2019-04-25T11:48:40.372Z,27.8
2019-04-25T11:49:42.276Z,27.6
2019-04-25T11:50:46.123Z,27.5
2019-04-25T11:51:45.077Z,27.2
2019-04-25T11:52:46.782Z,26.9
2019-04-25T11:53:48.230Z,27.0
2019-04-25T11:54:49.796Z,26.7
2019-04-25T11:55:51.310Z,26.6
2019-04-25T11:56:52.618Z,26.7
2019-04-25T11:57:54.587Z,27.0
2019-04-25T11:58:55.146Z,26.9
2019-04-25T11:59:55.980Z,27.1
2019-04-25T12:00:58.018Z,27.2
2019-04-25T12:01:58.867Z,26.9
2019-04-25T12:03:00.329Z,26.6
2019-04-25T12:04:02.052Z,26.1
2019-04-25T12:05:03.399Z,25.9
2019-04-25T12:06:04.927Z,25.8
2019-04-25T12:07:07.150Z,25.8
2019-04-25T12:08:07.864Z,25.6
2019-04-25T12:09:09.355Z,25.4
2019-04-25T12:10:10.798Z,25.4
2019-04-25T12:11:15.743Z,25.1
2019-04-25T12:12:17.452Z,24.8
2019-04-25T12:13:18.924Z,24.7
2019-04-25T12:14:20.582Z,24.7
2019-04-25T12:15:22.050Z,24.6
2019-04-25T12:16:24.604Z,24.2
2019-04-25T12:17:25.632Z,24.0
2019-04-25T12:18:27.058Z,24.2
2019-04-25T12:19:35.627Z,24.4
2019-04-25T12:20:30.020Z,24.3
2019-04-25T12:21:31.455Z,24.5
2019-04-25T12:22:34.232Z,24.5
2019-04-25T12:23:34.447Z,24.7
2019-04-25T12:24:35.909Z,24.8
2019-04-25T12:25:37.401Z,24.8
2019-04-25T12:26:38.901Z,24.8
2019-04-25T12:27:40.429Z,24.8
2019-04-25T12:28:41.906Z,24.8
2019-04-25T12:29:43.992Z,24.8
2019-04-25T12:30:45.795Z,24.6
2019-04-25T12:31:46.720Z,24.6
2019-04-25T12:32:47.943Z,24.4
2019-04-25T12:33:50.026Z,24.4
2019-04-25T12:34:51.556Z,24.6
2019-04-25T12:35:53.574Z,24.8
2019-04-25T12:36:54.471Z,25.0
2019-04-25T12:37:55.282Z,25.1
2019-04-25T12:38:56.594Z,25.2
2019-04-25T12:39:58.113Z,25.2
2019-04-25T12:40:59.667Z,25.3
2019-04-25T12:42:01.150Z,25.3
2019-04-25T12:43:05.164Z,25.3
2019-04-25T12:44:05.446Z,25.3
2019-04-25T12:45:06.826Z,25.3
2019-04-25T12:46:08.315Z,25.1
2019-04-25T12:47:09.856Z,25.0
2019-04-25T12:48:11.330Z,25.0
2019-04-25T12:49:13.129Z,24.9
2019-04-25T12:50:14.364Z,24.6
2019-04-25T12:51:15.742Z,24.4
2019-04-25T12:52:17.262Z,24.3
2019-04-25T12:53:18.682Z,24.3
2019-04-25T12:54:20.178Z,24.3
2019-04-25T12:55:21.654Z,24.1
2019-04-25T12:56:24.629Z,23.9
2019-04-25T12:57:25.862Z,23.9
2019-04-25T12:58:27.298Z,23.9
2019-04-25T12:59:28.752Z,23.8
2019-04-25T13:00:30.167Z,23.8
2019-04-25T13:01:33.275Z,23.8
2019-04-25T13:02:34.605Z,23.8
2019-04-25T13:03:34.345Z,23.9
2019-04-25T13:04:35.769Z,23.8
2019-04-25T13:05:37.227Z,23.9
2019-04-25T13:06:38.679Z,23.8
2019-04-25T13:07:40.098Z,23.8
2019-04-25T13:08:41.510Z,23.8
2019-04-25T13:09:43.997Z,23.8
2019-04-25T13:10:45.467Z,23.9
2019-04-25T13:11:46.910Z,23.7
2019-04-25T13:12:48.362Z,23.7
2019-04-25T13:13:49.795Z,23.8
2019-04-25T13:14:51.212Z,23.8
2019-04-25T13:15:53.293Z,23.9
2019-04-25T13:16:54.021Z,23.8
2019-04-25T13:17:55.615Z,23.7
2019-04-25T13:19:09.184Z,23.7
2019-04-25T13:19:59.476Z,23.7
2019-04-25T13:21:00.505Z,23.7
2019-04-25T13:22:01.218Z,23.7
2019-04-25T13:23:04.534Z,23.6
2019-04-25T13:24:05.776Z,23.6
2019-04-25T13:25:08.420Z,23.5
2019-04-25T13:26:08.700Z,23.5
2019-04-25T13:27:10.164Z,23.5
2019-04-25T13:28:11.608Z,23.5
2019-04-25T13:29:14.023Z,23.5
2019-04-25T13:30:15.684Z,23.4
2019-04-25T13:31:17.296Z,23.3
2019-04-25T13:32:18.781Z,23.3
2019-04-25T13:33:20.207Z,23.2
2019-04-25T13:34:34.144Z,23.3
2019-04-25T13:35:23.471Z,23.2
2019-04-25T13:36:25.357Z,23.2
2019-04-25T13:37:26.637Z,23.1
2019-04-25T13:38:28.088Z,23.1
2019-04-25T13:39:29.511Z,23.0
2019-04-25T13:40:30.953Z,23.0
2019-04-25T13:41:32.401Z,22.9
2019-04-25T13:42:34.499Z,22.9
2019-04-25T13:43:35.920Z,22.9
2019-04-25T13:44:37.651Z,22.9
2019-04-25T13:45:39.134Z,22.8
2019-04-25T13:46:40.574Z,22.8
2019-04-25T13:47:42.024Z,22.7
2019-04-25T13:48:43.472Z,22.7
2019-04-25T13:49:44.889Z,22.6
2019-04-25T13:50:46.380Z,22.7